createdAt,value
2018-11-20T00:01:41.308Z,16.00
2018-11-20T00:04:07.536Z,16.00
2018-11-20T00:06:33.761Z,16.00
2018-11-20T00:08:59.903Z,16.00
2018-11-20T00:11:26.222Z,16.00
2018-11-20T00:13:52.452Z,16.10
2018-11-20T00:16:18.670Z,16.00
2018-11-20T00:18:44.914Z,16.10
2018-11-20T00:21:11.134Z,16.10
2018-11-20T00:23:37.358Z,16.10
2018-11-20T00:26:03.585Z,16.10
2018-11-20T00:28:29.740Z,16.10
2018-11-20T00:30:56.051Z,16.10
2018-11-20T00:33:22.198Z,16.10
2018-11-20T00:35:48.358Z,16.00
2018-11-20T00:38:14.523Z,16.00
2018-11-20T00:40:40.754Z,16.00
2018-11-20T00:43:06.898Z,16.00
2018-11-20T00:45:33.205Z,16.00
2018-11-20T00:47:59.434Z,16.00
2018-11-20T00:50:25.637Z,16.00
2018-11-20T00:52:51.891Z,16.00
2018-11-20T00:55:18.122Z,16.00
2018-11-20T00:57:44.358Z,16.00
2018-11-20T01:00:10.587Z,16.00
2018-11-20T01:02:36.732Z,16.00
2018-11-20T01:05:04.221Z,16.00
2018-11-20T01:07:31.134Z,16.00
2018-11-20T01:09:57.331Z,16.00
2018-11-20T01:12:23.562Z,16.00
2018-11-20T01:14:49.708Z,16.00
2018-11-20T01:17:15.860Z,15.90
2018-11-20T01:19:42.047Z,15.90
2018-11-20T01:22:08.274Z,15.90
2018-11-20T01:24:34.505Z,15.90
2018-11-20T01:27:00.722Z,15.90
2018-11-20T01:29:26.956Z,15.90
2018-11-20T01:31:53.181Z,15.90
2018-11-20T01:34:19.414Z,15.90
2018-11-20T01:36:45.558Z,15.90
2018-11-20T01:39:11.869Z,15.80
2018-11-20T01:41:38.034Z,15.80
2018-11-20T01:44:04.330Z,15.80
2018-11-20T01:46:30.550Z,15.80
2018-11-20T01:48:56.689Z,15.80
2018-11-20T01:51:23.046Z,15.80
2018-11-20T01:53:49.236Z,15.80
2018-11-20T01:56:15.383Z,15.80
2018-11-20T01:58:41.698Z,15.80
2018-11-20T02:01:07.846Z,15.80
2018-11-20T02:03:34.156Z,15.80
2018-11-20T02:06:00.308Z,15.80
2018-11-20T02:08:26.601Z,15.80
2018-11-20T02:10:52.830Z,15.80
2018-11-20T02:13:19.014Z,15.80
2018-11-20T02:15:45.159Z,15.80
2018-11-20T02:18:11.520Z,15.80
2018-11-20T02:20:37.657Z,15.80
2018-11-20T02:23:03.801Z,15.80
2018-11-20T02:25:29.950Z,15.80
2018-11-20T02:27:56.225Z,15.80
2018-11-20T02:30:22.370Z,15.80
2018-11-20T02:32:48.524Z,15.80
2018-11-20T02:35:14.672Z,15.80
2018-11-20T02:37:41.754Z,15.80
2018-11-20T02:40:07.989Z,15.80
2018-11-20T02:42:34.142Z,15.80
2018-11-20T02:45:00.290Z,15.70
2018-11-20T02:47:27.423Z,15.70
2018-11-20T02:49:53.718Z,15.70
2018-11-20T02:52:19.866Z,15.70
2018-11-20T02:54:46.169Z,15.70
2018-11-20T02:57:12.406Z,15.70
2018-11-20T02:59:38.622Z,15.70
2018-11-20T03:02:04.853Z,15.70
2018-11-20T03:04:30.997Z,15.70
2018-11-20T03:06:57.314Z,15.70
2018-11-20T03:09:23.478Z,15.70
2018-11-20T03:11:49.779Z,15.70
2018-11-20T03:14:15.997Z,15.70
2018-11-20T03:16:42.223Z,15.70
2018-11-20T03:19:08.466Z,15.70
2018-11-20T03:21:34.625Z,15.70
2018-11-20T03:24:00.771Z,15.70
2018-11-20T03:26:27.134Z,15.70
2018-11-20T03:28:53.278Z,15.70
2018-11-20T03:31:19.602Z,15.70
2018-11-20T03:33:45.830Z,15.70
2018-11-20T03:36:12.131Z,15.70
2018-11-20T03:38:38.483Z,15.60
2018-11-20T03:41:04.718Z,15.60
2018-11-20T03:43:30.954Z,15.60
2018-11-20T03:45:57.165Z,15.60
2018-11-20T03:48:23.394Z,15.70
2018-11-20T03:50:49.631Z,15.70
2018-11-20T03:53:15.778Z,15.70
2018-11-20T03:55:42.082Z,15.70
2018-11-20T03:58:08.306Z,15.70
2018-11-20T04:00:34.459Z,15.70
2018-11-20T04:03:00.762Z,15.70
2018-11-20T04:05:26.990Z,15.70
2018-11-20T04:07:53.228Z,15.70
2018-11-20T04:10:19.447Z,15.70
2018-11-20T04:12:45.598Z,15.70
2018-11-20T04:15:11.906Z,15.70
2018-11-20T04:17:38.146Z,15.70
2018-11-20T04:20:04.370Z,15.70
2018-11-20T04:22:30.587Z,15.70
2018-11-20T04:24:56.818Z,15.70
2018-11-20T04:27:22.978Z,15.70
2018-11-20T04:29:49.122Z,15.70
2018-11-20T04:32:15.300Z,15.70
2018-11-20T04:34:41.526Z,15.70
2018-11-20T04:37:07.755Z,15.70
2018-11-20T04:39:33.898Z,15.70
2018-11-20T04:42:02.676Z,15.70
2018-11-20T04:44:28.826Z,15.70
2018-11-20T04:46:55.128Z,15.70
2018-11-20T04:49:21.274Z,15.60
2018-11-20T04:51:47.577Z,15.60
2018-11-20T04:54:13.719Z,15.70
2018-11-20T04:56:40.040Z,15.60
2018-11-20T04:59:06.203Z,15.70
2018-11-20T05:01:32.493Z,15.60
2018-11-20T05:03:58.674Z,15.60
2018-11-20T05:06:24.823Z,15.60
2018-11-20T05:08:51.183Z,15.60
2018-11-20T05:11:17.405Z,15.60
2018-11-20T05:13:43.688Z,15.60
2018-11-20T05:16:09.800Z,15.60
2018-11-20T05:18:36.094Z,15.60
2018-11-20T05:21:02.249Z,15.60
2018-11-20T05:23:28.549Z,15.60
2018-11-20T05:25:54.696Z,15.60
2018-11-20T05:28:21.002Z,15.60
2018-11-20T05:30:47.204Z,15.60
2018-11-20T05:33:13.468Z,15.60
2018-11-20T05:35:39.694Z,15.60
2018-11-20T05:38:05.923Z,15.60
2018-11-20T05:40:32.226Z,15.60
2018-11-20T05:42:58.377Z,15.50
2018-11-20T05:45:24.522Z,15.50
2018-11-20T05:47:50.730Z,15.50
2018-11-20T05:50:16.962Z,15.50
2018-11-20T05:52:43.107Z,15.50
2018-11-20T05:55:09.437Z,15.50
2018-11-20T05:57:35.641Z,15.50
2018-11-20T06:00:01.783Z,15.50
2018-11-20T06:02:28.094Z,15.50
2018-11-20T06:04:54.321Z,15.50
2018-11-20T06:07:20.555Z,15.50
2018-11-20T06:09:46.696Z,15.50
2018-11-20T06:12:13.006Z,15.50
2018-11-20T06:14:39.234Z,15.50
2018-11-20T06:17:05.466Z,15.50
2018-11-20T06:19:31.615Z,15.50
2018-11-20T06:21:57.926Z,15.50
2018-11-20T06:24:24.065Z,15.50
2018-11-20T06:26:50.378Z,15.50
2018-11-20T06:29:16.598Z,15.50
2018-11-20T06:31:42.834Z,15.50
2018-11-20T06:34:08.985Z,15.50
2018-11-20T06:36:35.293Z,15.50
2018-11-20T06:39:01.527Z,15.50
2018-11-20T06:41:27.827Z,15.50
2018-11-20T06:43:53.978Z,15.50
2018-11-20T06:46:20.203Z,15.50
2018-11-20T06:48:46.351Z,15.50
2018-11-20T06:51:12.498Z,15.50
2018-11-20T06:53:38.827Z,15.50
2018-11-20T06:56:04.910Z,15.50
2018-11-20T06:58:31.143Z,15.50
2018-11-20T07:00:57.365Z,15.50
2018-11-20T07:03:23.510Z,15.50
2018-11-20T07:05:49.664Z,15.50
2018-11-20T07:08:15.958Z,15.50
2018-11-20T07:10:41.984Z,15.50
2018-11-20T07:13:08.134Z,15.50
2018-11-20T07:15:34.436Z,15.50
2018-11-20T07:18:00.455Z,15.50
2018-11-20T07:20:26.793Z,15.50
2018-11-20T07:22:53.018Z,15.50
2018-11-20T07:25:19.234Z,15.40
2018-11-20T07:27:45.385Z,15.40
2018-11-20T07:30:11.592Z,15.50
2018-11-20T07:32:37.925Z,15.50
2018-11-20T07:35:04.277Z,15.50
2018-11-20T07:37:30.365Z,15.50
2018-11-20T07:39:56.535Z,15.50
2018-11-20T07:42:22.835Z,15.50
2018-11-20T07:44:48.978Z,15.50
2018-11-20T07:47:15.293Z,15.50
2018-11-20T07:49:41.446Z,15.50
2018-11-20T07:52:07.754Z,15.50
2018-11-20T07:54:33.897Z,15.50
2018-11-20T07:57:00.240Z,15.50
2018-11-20T07:59:26.434Z,15.50
2018-11-20T08:01:52.579Z,15.50
2018-11-20T08:04:18.890Z,15.50
2018-11-20T08:06:45.119Z,15.50
2018-11-20T08:09:11.346Z,15.50
2018-11-20T08:11:37.490Z,15.50
2018-11-20T08:14:03.807Z,15.50
2018-11-20T08:16:29.970Z,15.50
2018-11-20T08:18:56.262Z,15.50
2018-11-20T08:21:22.405Z,15.50
2018-11-20T08:23:48.551Z,15.50
2018-11-20T08:26:14.933Z,15.50
2018-11-20T08:28:41.007Z,15.50
2018-11-20T08:31:07.223Z,15.50
2018-11-20T08:33:33.448Z,15.50
2018-11-20T08:35:59.657Z,15.50
2018-11-20T08:38:25.889Z,15.50
2018-11-20T08:40:52.043Z,15.50
2018-11-20T08:43:18.333Z,15.50
2018-11-20T08:45:44.490Z,15.50
2018-11-20T08:48:10.858Z,15.50
2018-11-20T08:50:37.018Z,15.40
2018-11-20T08:53:03.250Z,15.40
2018-11-20T08:55:29.393Z,15.40
2018-11-20T08:57:55.713Z,15.40
2018-11-20T09:00:21.933Z,15.40
2018-11-20T09:02:48.157Z,15.40
2018-11-20T09:05:14.406Z,15.50
2018-11-20T09:07:40.629Z,15.40
2018-11-20T09:10:06.908Z,15.40
2018-11-20T09:12:33.014Z,15.40
2018-11-20T09:14:59.158Z,15.40
2018-11-20T09:17:25.303Z,15.40
2018-11-20T09:19:51.459Z,15.40
2018-11-20T09:22:17.781Z,15.40
2018-11-20T09:24:44.013Z,15.40
2018-11-20T09:27:10.166Z,15.40
2018-11-20T09:29:36.331Z,15.40
2018-11-20T09:32:02.496Z,15.40
2018-11-20T09:34:28.739Z,15.40
2018-11-20T09:36:54.963Z,15.40
2018-11-20T09:39:21.175Z,15.40
2018-11-20T09:41:47.318Z,15.40
2018-11-20T09:44:13.632Z,15.40
2018-11-20T09:46:39.824Z,15.40
2018-11-20T09:49:06.094Z,15.40
2018-11-20T09:51:32.323Z,15.40
2018-11-20T09:53:58.470Z,15.40
2018-11-20T09:56:24.782Z,15.40
2018-11-20T09:58:51.007Z,15.40
2018-11-20T10:01:17.146Z,15.40
2018-11-20T10:03:43.357Z,15.40
2018-11-20T10:06:09.482Z,15.40
2018-11-20T10:08:35.652Z,15.40
2018-11-20T10:11:01.803Z,15.40
2018-11-20T10:13:28.165Z,15.40
2018-11-20T10:15:54.311Z,15.40
2018-11-20T10:18:20.619Z,15.40
2018-11-20T10:20:46.890Z,15.40
2018-11-20T10:23:13.102Z,15.40
2018-11-20T10:25:39.366Z,15.40
2018-11-20T10:28:05.486Z,15.40
2018-11-20T10:30:31.763Z,15.40
2018-11-20T10:32:57.991Z,15.40
2018-11-20T10:35:24.223Z,15.40
2018-11-20T10:37:50.447Z,15.40
2018-11-20T10:40:16.650Z,15.40
2018-11-20T10:42:42.941Z,15.40
2018-11-20T10:45:09.087Z,15.40
2018-11-20T10:47:35.357Z,15.40
2018-11-20T10:50:01.502Z,15.40
2018-11-20T10:52:27.670Z,15.40
2018-11-20T10:54:53.847Z,15.40
2018-11-20T10:57:20.012Z,15.40
2018-11-20T10:59:46.340Z,15.40
2018-11-20T11:02:12.490Z,15.40
2018-11-20T11:04:39.601Z,15.40
2018-11-20T11:07:06.016Z,15.40
2018-11-20T11:09:31.967Z,15.40
2018-11-20T11:11:58.332Z,15.30
2018-11-20T11:14:24.539Z,15.40
2018-11-20T11:16:50.650Z,15.40
2018-11-20T11:19:16.942Z,15.40
2018-11-20T11:21:43.093Z,15.40
2018-11-20T11:24:09.396Z,15.40
2018-11-20T11:26:35.628Z,15.40
2018-11-20T11:29:01.775Z,15.40
2018-11-20T11:31:28.095Z,15.40
2018-11-20T11:33:54.242Z,15.40
2018-11-20T11:36:20.562Z,15.40
2018-11-20T11:38:46.771Z,15.40
2018-11-20T11:41:12.931Z,15.40
2018-11-20T11:43:39.228Z,15.40
2018-11-20T11:46:05.451Z,15.40
2018-11-20T11:48:31.687Z,15.40
2018-11-20T11:50:57.836Z,15.40
2018-11-20T11:53:23.987Z,15.40
2018-11-20T11:55:50.171Z,15.40
2018-11-20T11:58:18.716Z,15.40
2018-11-20T12:00:42.619Z,15.40
